sensor_id;sensor_type;location;lat;lon;timestamp;P1;durP1;ratioP1;P2;durP2;ratioP2
1825;SDS011;912;48.130;11.348;2022-08-21T00:00:07;0.50;;;0.50;;
1825;SDS011;912;48.130;11.348;2022-08-21T00:02:47;0.60;;;0.60;;
1825;SDS011;912;48.130;11.348;2022-08-21T00:05:28;0.40;;;0.20;;
1825;SDS011;912;48.130;11.348;2022-08-21T00:08:10;0.50;;;0.35;;
1825;SDS011;912;48.130;11.348;2022-08-21T00:10:52;0.40;;;0.40;;
1825;SDS011;912;48.130;11.348;2022-08-21T00:13:34;0.40;;;0.30;;
1825;SDS011;912;48.130;11.348;2022-08-21T00:16:15;0.68;;;0.40;;
1825;SDS011;912;48.130;11.348;2022-08-21T00:18:57;0.40;;;0.20;;
1825;SDS011;912;48.130;11.348;2022-08-21T00:21:39;0.40;;;0.20;;
1825;SDS011;912;48.130;11.348;2022-08-21T00:24:21;0.40;;;0.20;;
1825;SDS011;912;48.130;11.348;2022-08-21T00:27:04;0.50;;;0.40;;
1825;SDS011;912;48.130;11.348;2022-08-21T00:29:49;0.68;;;0.47;;
1825;SDS011;912;48.130;11.348;2022-08-21T00:32:31;0.40;;;0.20;;
1825;SDS011;912;48.130;11.348;2022-08-21T00:35:50;1.30;;;1.08;;
1825;SDS011;912;48.130;11.348;2022-08-21T00:38:31;0.45;;;0.45;;
1825;SDS011;912;48.130;11.348;2022-08-21T00:41:13;0.40;;;0.20;;
1825;SDS011;912;48.130;11.348;2022-08-21T00:43:55;0.40;;;0.20;;
1825;SDS011;912;48.130;11.348;2022-08-21T00:46:37;0.40;;;0.20;;
1825;SDS011;912;48.130;11.348;2022-08-21T00:49:21;0.60;;;0.50;;
1825;SDS011;912;48.130;11.348;2022-08-21T00:52:04;0.40;;;0.30;;
1825;SDS011;912;48.130;11.348;2022-08-21T00:54:45;0.40;;;0.20;;
1825;SDS011;912;48.130;11.348;2022-08-21T00:57:30;2.17;;;0.65;;
1825;SDS011;912;48.130;11.348;2022-08-21T01:00:11;0.70;;;0.52;;
1825;SDS011;912;48.130;11.348;2022-08-21T01:02:52;0.30;;;0.22;;
1825;SDS011;912;48.130;11.348;2022-08-21T01:05:34;0.50;;;0.20;;
1825;SDS011;912;48.130;11.348;2022-08-21T01:10:39;0.40;;;0.20;;
1825;SDS011;912;48.130;11.348;2022-08-21T01:13:21;0.40;;;0.30;;
1825;SDS011;912;48.130;11.348;2022-08-21T01:16:03;0.80;;;0.60;;
1825;SDS011;912;48.130;11.348;2022-08-21T01:18:44;0.40;;;0.30;;
1825;SDS011;912;48.130;11.348;2022-08-21T01:21:26;0.40;;;0.40;;
1825;SDS011;912;48.130;11.348;2022-08-21T01:24:08;0.40;;;0.20;;
1825;SDS011;912;48.130;11.348;2022-08-21T01:26:49;0.47;;;0.47;;
1825;SDS011;912;48.130;11.348;2022-08-21T01:29:34;0.50;;;0.40;;
1825;SDS011;912;48.130;11.348;2022-08-21T01:32:17;0.45;;;0.40;;
1825;SDS011;912;48.130;11.348;2022-08-21T01:35:56;0.40;;;0.20;;
1825;SDS011;912;48.130;11.348;2022-08-21T01:38:37;0.50;;;0.40;;
1825;SDS011;912;48.130;11.348;2022-08-21T01:41:19;0.40;;;0.20;;
1825;SDS011;912;48.130;11.348;2022-08-21T01:44:01;0.40;;;0.30;;
1825;SDS011;912;48.130;11.348;2022-08-21T01:46:48;0.47;;;0.40;;
1825;SDS011;912;48.130;11.348;2022-08-21T01:49:29;0.47;;;0.32;;
1825;SDS011;912;48.130;11.348;2022-08-21T01:52:14;0.70;;;0.30;;
1825;SDS011;912;48.130;11.348;2022-08-21T01:54:56;0.40;;;0.35;;
1825;SDS011;912;48.130;11.348;2022-08-21T01:57:41;1.00;;;0.28;;
1825;SDS011;912;48.130;11.348;2022-08-21T02:00:22;0.50;;;0.50;;
1825;SDS011;912;48.130;11.348;2022-08-21T02:03:04;0.50;;;0.40;;
1825;SDS011;912;48.130;11.348;2022-08-21T02:05:46;0.40;;;0.20;;
1825;SDS011;912;48.130;11.348;2022-08-21T02:08:28;0.40;;;0.30;;
1825;SDS011;912;48.130;11.348;2022-08-21T02:11:09;0.40;;;0.40;;
1825;SDS011;912;48.130;11.348;2022-08-21T02:13:53;0.40;;;0.40;;
1825;SDS011;912;48.130;11.348;2022-08-21T02:16:35;0.40;;;0.20;;
1825;SDS011;912;48.130;11.348;2022-08-21T02:19:18;0.60;;;0.40;;
1825;SDS011;912;48.130;11.348;2022-08-21T02:22:00;0.30;;;0.20;;
1825;SDS011;912;48.130;11.348;2022-08-21T02:24:42;0.40;;;0.30;;
1825;SDS011;912;48.130;11.348;2022-08-21T02:27:24;0.40;;;0.30;;
1825;SDS011;912;48.130;11.348;2022-08-21T02:30:06;0.85;;;0.25;;
1825;SDS011;912;48.130;11.348;2022-08-21T02:32:49;0.60;;;0.40;;
1825;SDS011;912;48.130;11.348;2022-08-21T02:35:52;0.60;;;0.60;;
1825;SDS011;912;48.130;11.348;2022-08-21T02:38:34;0.40;;;0.30;;
1825;SDS011;912;48.130;11.348;2022-08-21T02:41:16;1.10;;;0.60;;
1825;SDS011;912;48.130;11.348;2022-08-21T02:43:56;0.40;;;0.32;;
1825;SDS011;912;48.130;11.348;2022-08-21T02:46:38;1.40;;;0.80;;
1825;SDS011;912;48.130;11.348;2022-08-21T02:49:20;0.40;;;0.20;;
1825;SDS011;912;48.130;11.348;2022-08-21T02:52:03;0.90;;;0.77;;
1825;SDS011;912;48.130;11.348;2022-08-21T02:54:48;0.60;;;0.60;;
1825;SDS011;912;48.130;11.348;2022-08-21T02:57:30;0.40;;;0.20;;
1825;SDS011;912;48.130;11.348;2022-08-21T03:00:12;0.60;;;0.50;;
1825;SDS011;912;48.130;11.348;2022-08-21T03:02:53;0.40;;;0.30;;
1825;SDS011;912;48.130;11.348;2022-08-21T03:05:36;0.40;;;0.20;;
1825;SDS011;912;48.130;11.348;2022-08-21T03:08:17;0.40;;;0.40;;
1825;SDS011;912;48.130;11.348;2022-08-21T03:10:58;0.80;;;0.70;;
1825;SDS011;912;48.130;11.348;2022-08-21T03:13:40;0.50;;;0.50;;
1825;SDS011;912;48.130;11.348;2022-08-21T03:16:22;0.50;;;0.40;;
1825;SDS011;912;48.130;11.348;2022-08-21T03:19:04;0.40;;;0.30;;
1825;SDS011;912;48.130;11.348;2022-08-21T03:21:46;0.60;;;0.60;;
1825;SDS011;912;48.130;11.348;2022-08-21T03:24:27;0.70;;;0.50;;
1825;SDS011;912;48.130;11.348;2022-08-21T03:27:09;0.40;;;0.20;;
1825;SDS011;912;48.130;11.348;2022-08-21T03:29:51;0.40;;;0.20;;
1825;SDS011;912;48.130;11.348;2022-08-21T03:32:33;0.60;;;0.50;;
1825;SDS011;912;48.130;11.348;2022-08-21T03:35:53;0.40;;;0.30;;
1825;SDS011;912;48.130;11.348;2022-08-21T03:38:36;0.40;;;0.30;;
1825;SDS011;912;48.130;11.348;2022-08-21T03:41:18;0.40;;;0.30;;
1825;SDS011;912;48.130;11.348;2022-08-21T03:43:59;1.90;;;0.50;;
1825;SDS011;912;48.130;11.348;2022-08-21T03:46:42;0.40;;;0.40;;
1825;SDS011;912;48.130;11.348;2022-08-21T03:49:25;0.40;;;0.30;;
1825;SDS011;912;48.130;11.348;2022-08-21T03:52:05;0.57;;;0.52;;
1825;SDS011;912;48.130;11.348;2022-08-21T03:54:47;0.50;;;0.40;;
1825;SDS011;912;48.130;11.348;2022-08-21T03:57:29;0.60;;;0.40;;
1825;SDS011;912;48.130;11.348;2022-08-21T04:00:14;0.52;;;0.25;;
1825;SDS011;912;48.130;11.348;2022-08-21T04:02:56;0.40;;;0.30;;
1825;SDS011;912;48.130;11.348;2022-08-21T04:05:38;0.70;;;0.70;;
1825;SDS011;912;48.130;11.348;2022-08-21T04:08:19;0.40;;;0.20;;
1825;SDS011;912;48.130;11.348;2022-08-21T04:11:01;0.80;;;0.52;;
1825;SDS011;912;48.130;11.348;2022-08-21T04:13:43;0.50;;;0.45;;
1825;SDS011;912;48.130;11.348;2022-08-21T04:16:28;0.40;;;0.20;;
1825;SDS011;912;48.130;11.348;2022-08-21T04:21:46;0.40;;;0.30;;
1825;SDS011;912;48.130;11.348;2022-08-21T04:24:27;0.50;;;0.40;;
1825;SDS011;912;48.130;11.348;2022-08-21T04:27:09;0.40;;;0.30;;
1825;SDS011;912;48.130;11.348;2022-08-21T04:29:51;0.80;;;0.40;;
1825;SDS011;912;48.130;11.348;2022-08-21T04:32:36;0.40;;;0.30;;
1825;SDS011;912;48.130;11.348;2022-08-21T04:35:50;0.40;;;0.20;;
1825;SDS011;912;48.130;11.348;2022-08-21T04:38:31;0.50;;;0.30;;
1825;SDS011;912;48.130;11.348;2022-08-21T04:41:13;1.20;;;0.40;;
1825;SDS011;912;48.130;11.348;2022-08-21T04:43:58;0.60;;;0.40;;
1825;SDS011;912;48.130;11.348;2022-08-21T04:46:39;0.45;;;0.45;;
1825;SDS011;912;48.130;11.348;2022-08-21T04:49:31;0.40;;;0.20;;
1825;SDS011;912;48.130;11.348;2022-08-21T04:52:17;0.40;;;0.20;;
1825;SDS011;912;48.130;11.348;2022-08-21T04:54:56;0.40;;;0.30;;
1825;SDS011;912;48.130;11.348;2022-08-21T04:57:38;0.40;;;0.20;;
1825;SDS011;912;48.130;11.348;2022-08-21T05:00:20;0.40;;;0.20;;
1825;SDS011;912;48.130;11.348;2022-08-21T05:03:02;0.60;;;0.60;;
1825;SDS011;912;48.130;11.348;2022-08-21T05:08:21;0.50;;;0.50;;
1825;SDS011;912;48.130;11.348;2022-08-21T05:11:02;0.50;;;0.40;;
1825;SDS011;912;48.130;11.348;2022-08-21T05:13:44;0.40;;;0.20;;
1825;SDS011;912;48.130;11.348;2022-08-21T05:16:26;1.00;;;0.80;;
1825;SDS011;912;48.130;11.348;2022-08-21T05:19:08;0.40;;;0.20;;
1825;SDS011;912;48.130;11.348;2022-08-21T05:21:49;0.40;;;0.30;;
1825;SDS011;912;48.130;11.348;2022-08-21T05:24:31;0.40;;;0.40;;
1825;SDS011;912;48.130;11.348;2022-08-21T05:27:13;0.50;;;0.20;;
1825;SDS011;912;48.130;11.348;2022-08-21T05:30:00;0.40;;;0.20;;
1825;SDS011;912;48.130;11.348;2022-08-21T05:32:41;0.45;;;0.45;;
1825;SDS011;912;48.130;11.348;2022-08-21T05:35:51;0.40;;;0.30;;
1825;SDS011;912;48.130;11.348;2022-08-21T05:38:32;0.40;;;0.22;;
1825;SDS011;912;48.130;11.348;2022-08-21T05:41:13;0.40;;;0.20;;
1825;SDS011;912;48.130;11.348;2022-08-21T05:43:55;0.40;;;0.20;;
1825;SDS011;912;48.130;11.348;2022-08-21T05:46:37;0.40;;;0.40;;
1825;SDS011;912;48.130;11.348;2022-08-21T05:49:18;0.40;;;0.30;;
1825;SDS011;912;48.130;11.348;2022-08-21T05:52:01;0.50;;;0.43;;
1825;SDS011;912;48.130;11.348;2022-08-21T05:54:42;1.90;;;1.00;;
1825;SDS011;912;48.130;11.348;2022-08-21T05:59:58;0.60;;;0.30;;
1825;SDS011;912;48.130;11.348;2022-08-21T06:02:40;0.40;;;0.30;;
1825;SDS011;912;48.130;11.348;2022-08-21T06:05:22;0.50;;;0.40;;
1825;SDS011;912;48.130;11.348;2022-08-21T06:08:03;1.60;;;0.90;;
1825;SDS011;912;48.130;11.348;2022-08-21T06:10:46;0.82;;;0.75;;
1825;SDS011;912;48.130;11.348;2022-08-21T06:13:27;1.10;;;0.40;;
1825;SDS011;912;48.130;11.348;2022-08-21T06:16:10;0.50;;;0.43;;
1825;SDS011;912;48.130;11.348;2022-08-21T06:18:50;0.50;;;0.40;;
1825;SDS011;912;48.130;11.348;2022-08-21T06:21:32;0.73;;;0.43;;
1825;SDS011;912;48.130;11.348;2022-08-21T06:24:14;0.60;;;0.60;;
1825;SDS011;912;48.130;11.348;2022-08-21T06:26:55;0.43;;;0.35;;
1825;SDS011;912;48.130;11.348;2022-08-21T06:29:37;0.47;;;0.40;;
1825;SDS011;912;48.130;11.348;2022-08-21T06:32:19;0.45;;;0.32;;
1825;SDS011;912;48.130;11.348;2022-08-21T06:35:49;0.40;;;0.30;;
1825;SDS011;912;48.130;11.348;2022-08-21T06:38:31;0.60;;;0.60;;
1825;SDS011;912;48.130;11.348;2022-08-21T06:41:13;2.00;;;0.50;;
1825;SDS011;912;48.130;11.348;2022-08-21T06:43:55;0.40;;;0.40;;
1825;SDS011;912;48.130;11.348;2022-08-21T06:46:36;1.20;;;0.50;;
1825;SDS011;912;48.130;11.348;2022-08-21T06:49:18;1.65;;;0.50;;
1825;SDS011;912;48.130;11.348;2022-08-21T06:52:02;0.70;;;0.50;;
1825;SDS011;912;48.130;11.348;2022-08-21T06:54:44;0.60;;;0.50;;
1825;SDS011;912;48.130;11.348;2022-08-21T06:57:25;0.50;;;0.50;;
1825;SDS011;912;48.130;11.348;2022-08-21T07:00:08;1.10;;;1.00;;
1825;SDS011;912;48.130;11.348;2022-08-21T07:02:54;0.62;;;0.52;;
1825;SDS011;912;48.130;11.348;2022-08-21T07:05:35;0.65;;;0.60;;
1825;SDS011;912;48.130;11.348;2022-08-21T07:10:04;0.60;;;0.50;;
1825;SDS011;912;48.130;11.348;2022-08-21T07:12:46;0.60;;;0.50;;
1825;SDS011;912;48.130;11.348;2022-08-21T07:15:28;0.77;;;0.75;;
1825;SDS011;912;48.130;11.348;2022-08-21T07:18:13;0.70;;;0.70;;
1825;SDS011;912;48.130;11.348;2022-08-21T07:20:54;2.10;;;0.80;;
1825;SDS011;912;48.130;11.348;2022-08-21T07:23:38;0.95;;;0.77;;
1825;SDS011;912;48.130;11.348;2022-08-21T07:26:21;1.10;;;0.60;;
1825;SDS011;912;48.130;11.348;2022-08-21T07:29:02;1.10;;;0.80;;
1825;SDS011;912;48.130;11.348;2022-08-21T07:31:44;1.70;;;1.00;;
1825;SDS011;912;48.130;11.348;2022-08-21T07:35:50;6.10;;;0.73;;
1825;SDS011;912;48.130;11.348;2022-08-21T07:38:32;1.20;;;0.70;;
1825;SDS011;912;48.130;11.348;2022-08-21T07:41:15;1.70;;;1.17;;
1825;SDS011;912;48.130;11.348;2022-08-21T07:43:57;0.90;;;0.55;;
1825;SDS011;912;48.130;11.348;2022-08-21T07:46:38;1.17;;;1.00;;
1825;SDS011;912;48.130;11.348;2022-08-21T07:49:20;1.83;;;0.98;;
1825;SDS011;912;48.130;11.348;2022-08-21T07:52:02;3.10;;;1.10;;
1825;SDS011;912;48.130;11.348;2022-08-21T07:54:44;1.10;;;1.00;;
1825;SDS011;912;48.130;11.348;2022-08-21T07:57:25;0.70;;;0.70;;
1825;SDS011;912;48.130;11.348;2022-08-21T08:00:09;1.50;;;0.80;;
1825;SDS011;912;48.130;11.348;2022-08-21T08:02:51;1.23;;;0.90;;
1825;SDS011;912;48.130;11.348;2022-08-21T08:05:32;1.33;;;0.93;;
1825;SDS011;912;48.130;11.348;2022-08-21T08:08:14;1.10;;;0.65;;
1825;SDS011;912;48.130;11.348;2022-08-21T08:10:56;0.90;;;0.75;;
1825;SDS011;912;48.130;11.348;2022-08-21T08:13:39;1.40;;;1.05;;
1825;SDS011;912;48.130;11.348;2022-08-21T08:16:20;0.93;;;0.90;;
1825;SDS011;912;48.130;11.348;2022-08-21T08:19:02;1.30;;;0.85;;
1825;SDS011;912;48.130;11.348;2022-08-21T08:21:44;1.80;;;1.12;;
1825;SDS011;912;48.130;11.348;2022-08-21T08:24:25;1.30;;;0.97;;
1825;SDS011;912;48.130;11.348;2022-08-21T08:27:07;1.10;;;1.00;;
1825;SDS011;912;48.130;11.348;2022-08-21T08:29:49;2.47;;;1.45;;
1825;SDS011;912;48.130;11.348;2022-08-21T08:32:30;1.70;;;1.52;;
1825;SDS011;912;48.130;11.348;2022-08-21T08:35:50;1.60;;;1.10;;
1825;SDS011;912;48.130;11.348;2022-08-21T08:38:31;2.05;;;1.58;;
1825;SDS011;912;48.130;11.348;2022-08-21T08:41:14;3.17;;;1.55;;
1825;SDS011;912;48.130;11.348;2022-08-21T08:43:59;2.08;;;1.85;;
1825;SDS011;912;48.130;11.348;2022-08-21T08:46:41;1.70;;;1.60;;
1825;SDS011;912;48.130;11.348;2022-08-21T08:49:24;2.50;;;1.70;;
1825;SDS011;912;48.130;11.348;2022-08-21T08:52:07;1.80;;;1.50;;
1825;SDS011;912;48.130;11.348;2022-08-21T08:54:50;2.28;;;1.75;;
1825;SDS011;912;48.130;11.348;2022-08-21T08:57:31;2.00;;;1.40;;
1825;SDS011;912;48.130;11.348;2022-08-21T09:00:13;2.37;;;1.87;;
1825;SDS011;912;48.130;11.348;2022-08-21T09:02:59;1.60;;;1.50;;
1825;SDS011;912;48.130;11.348;2022-08-21T09:05:44;2.90;;;1.90;;
1825;SDS011;912;48.130;11.348;2022-08-21T09:08:36;2.10;;;1.70;;
1825;SDS011;912;48.130;11.348;2022-08-21T09:11:41;1.80;;;1.50;;
1825;SDS011;912;48.130;11.348;2022-08-21T09:14:39;1.87;;;1.50;;
1825;SDS011;912;48.130;11.348;2022-08-21T09:17:37;1.77;;;1.27;;
1825;SDS011;912;48.130;11.348;2022-08-21T09:20:24;1.60;;;1.50;;
1825;SDS011;912;48.130;11.348;2022-08-21T09:23:17;1.55;;;1.40;;
1825;SDS011;912;48.130;11.348;2022-08-21T09:26:12;1.73;;;1.50;;
1825;SDS011;912;48.130;11.348;2022-08-21T09:28:55;1.90;;;1.80;;
1825;SDS011;912;48.130;11.348;2022-08-21T09:31:36;1.65;;;1.40;;
1825;SDS011;912;48.130;11.348;2022-08-21T09:35:54;1.30;;;1.20;;
1825;SDS011;912;48.130;11.348;2022-08-21T09:38:34;1.60;;;1.50;;
1825;SDS011;912;48.130;11.348;2022-08-21T09:41:14;1.60;;;1.50;;
1825;SDS011;912;48.130;11.348;2022-08-21T09:43:56;1.62;;;1.30;;
1825;SDS011;912;48.130;11.348;2022-08-21T09:46:38;2.22;;;1.08;;
1825;SDS011;912;48.130;11.348;2022-08-21T09:51:53;1.40;;;1.30;;
1825;SDS011;912;48.130;11.348;2022-08-21T09:54:37;3.20;;;1.50;;
1825;SDS011;912;48.130;11.348;2022-08-21T09:57:21;2.45;;;1.48;;
1825;SDS011;912;48.130;11.348;2022-08-21T10:00:15;1.92;;;1.30;;
1825;SDS011;912;48.130;11.348;2022-08-21T10:03:09;1.20;;;1.10;;
1825;SDS011;912;48.130;11.348;2022-08-21T10:05:51;1.60;;;1.50;;
1825;SDS011;912;48.130;11.348;2022-08-21T10:08:29;1.35;;;1.25;;
1825;SDS011;912;48.130;11.348;2022-08-21T10:11:12;1.20;;;1.10;;
1825;SDS011;912;48.130;11.348;2022-08-21T10:13:57;1.48;;;1.37;;
1825;SDS011;912;48.130;11.348;2022-08-21T10:16:47;1.62;;;1.30;;
1825;SDS011;912;48.130;11.348;2022-08-21T10:19:40;1.20;;;1.00;;
1825;SDS011;912;48.130;11.348;2022-08-21T10:22:45;1.60;;;1.20;;
1825;SDS011;912;48.130;11.348;2022-08-21T10:25:30;1.95;;;1.33;;
1825;SDS011;912;48.130;11.348;2022-08-21T10:28:17;3.92;;;1.45;;
1825;SDS011;912;48.130;11.348;2022-08-21T10:31:14;1.50;;;1.40;;
1825;SDS011;912;48.130;11.348;2022-08-21T10:35:58;1.15;;;0.90;;
1825;SDS011;912;48.130;11.348;2022-08-21T10:41:29;1.37;;;1.27;;
1825;SDS011;912;48.130;11.348;2022-08-21T10:50:17;1.20;;;1.10;;
1825;SDS011;912;48.130;11.348;2022-08-21T11:02:01;1.58;;;1.20;;
1825;SDS011;912;48.130;11.348;2022-08-21T11:07:36;1.30;;;1.20;;
1825;SDS011;912;48.130;11.348;2022-08-21T11:10:20;1.50;;;1.40;;
1825;SDS011;912;48.130;11.348;2022-08-21T11:13:04;2.00;;;1.40;;
1825;SDS011;912;48.130;11.348;2022-08-21T11:15:51;1.90;;;1.20;;
1825;SDS011;912;48.130;11.348;2022-08-21T11:18:34;0.90;;;0.90;;
1825;SDS011;912;48.130;11.348;2022-08-21T11:21:19;1.92;;;1.23;;
1825;SDS011;912;48.130;11.348;2022-08-21T11:24:14;1.05;;;1.00;;
1825;SDS011;912;48.130;11.348;2022-08-21T11:26:59;1.10;;;1.00;;
1825;SDS011;912;48.130;11.348;2022-08-21T11:29:44;0.98;;;0.88;;
1825;SDS011;912;48.130;11.348;2022-08-21T11:32:32;2.15;;;1.40;;
1825;SDS011;912;48.130;11.348;2022-08-21T11:35:51;1.33;;;1.23;;
1825;SDS011;912;48.130;11.348;2022-08-21T11:38:35;1.10;;;1.00;;
1825;SDS011;912;48.130;11.348;2022-08-21T11:41:27;1.23;;;1.10;;
1825;SDS011;912;48.130;11.348;2022-08-21T11:44:13;1.30;;;1.10;;
1825;SDS011;912;48.130;11.348;2022-08-21T11:49:57;2.00;;;1.30;;
1825;SDS011;912;48.130;11.348;2022-08-21T11:52:52;1.30;;;1.13;;
1825;SDS011;912;48.130;11.348;2022-08-21T11:55:37;1.20;;;1.10;;
1825;SDS011;912;48.130;11.348;2022-08-21T11:58:23;1.55;;;1.17;;
1825;SDS011;912;48.130;11.348;2022-08-21T12:01:05;1.35;;;1.20;;
1825;SDS011;912;48.130;11.348;2022-08-21T12:03:56;1.45;;;1.15;;
1825;SDS011;912;48.130;11.348;2022-08-21T12:06:40;2.70;;;1.20;;
1825;SDS011;912;48.130;11.348;2022-08-21T12:09:32;1.98;;;1.08;;
1825;SDS011;912;48.130;11.348;2022-08-21T12:24:01;2.17;;;1.30;;
1825;SDS011;912;48.130;11.348;2022-08-21T12:26:48;1.80;;;1.33;;
1825;SDS011;912;48.130;11.348;2022-08-21T12:32:20;1.55;;;1.30;;
1825;SDS011;912;48.130;11.348;2022-08-21T12:35:50;1.60;;;1.30;;
1825;SDS011;912;48.130;11.348;2022-08-21T12:38:33;2.80;;;1.35;;
1825;SDS011;912;48.130;11.348;2022-08-21T12:41:17;1.52;;;1.15;;
1825;SDS011;912;48.130;11.348;2022-08-21T12:44:00;1.50;;;1.23;;
1825;SDS011;912;48.130;11.348;2022-08-21T12:46:46;1.25;;;1.10;;
1825;SDS011;912;48.130;11.348;2022-08-21T12:49:46;2.90;;;1.20;;
1825;SDS011;912;48.130;11.348;2022-08-21T12:52:29;1.20;;;1.10;;
1825;SDS011;912;48.130;11.348;2022-08-21T12:55:12;1.20;;;1.10;;
1825;SDS011;912;48.130;11.348;2022-08-21T12:57:53;1.93;;;1.30;;
1825;SDS011;912;48.130;11.348;2022-08-21T13:00:34;2.00;;;1.20;;
1825;SDS011;912;48.130;11.348;2022-08-21T13:03:16;1.10;;;1.00;;
1825;SDS011;912;48.130;11.348;2022-08-21T13:05:58;1.40;;;1.30;;
1825;SDS011;912;48.130;11.348;2022-08-21T13:08:39;2.00;;;1.25;;
1825;SDS011;912;48.130;11.348;2022-08-21T13:11:21;1.10;;;1.00;;
1825;SDS011;912;48.130;11.348;2022-08-21T13:14:03;1.60;;;1.10;;
1825;SDS011;912;48.130;11.348;2022-08-21T13:16:52;1.30;;;1.20;;
1825;SDS011;912;48.130;11.348;2022-08-21T13:19:30;1.90;;;1.25;;
1825;SDS011;912;48.130;11.348;2022-08-21T13:22:15;1.10;;;1.00;;
1825;SDS011;912;48.130;11.348;2022-08-21T13:24:56;2.33;;;1.30;;
1825;SDS011;912;48.130;11.348;2022-08-21T13:27:42;1.10;;;1.00;;
1825;SDS011;912;48.130;11.348;2022-08-21T13:30:22;1.55;;;1.30;;
1825;SDS011;912;48.130;11.348;2022-08-21T13:36:01;2.60;;;1.10;;
1825;SDS011;912;48.130;11.348;2022-08-21T13:38:46;1.25;;;1.10;;
1825;SDS011;912;48.130;11.348;2022-08-21T13:41:29;1.50;;;1.00;;
1825;SDS011;912;48.130;11.348;2022-08-21T13:47:02;1.60;;;1.30;;
1825;SDS011;912;48.130;11.348;2022-08-21T13:49:44;1.15;;;1.05;;
1825;SDS011;912;48.130;11.348;2022-08-21T13:52:25;1.25;;;1.15;;
1825;SDS011;912;48.130;11.348;2022-08-21T13:55:09;2.90;;;1.55;;
1825;SDS011;912;48.130;11.348;2022-08-21T13:57:58;1.42;;;1.20;;
1825;SDS011;912;48.130;11.348;2022-08-21T14:00:31;1.30;;;1.20;;
1825;SDS011;912;48.130;11.348;2022-08-21T14:03:13;1.25;;;1.15;;
1825;SDS011;912;48.130;11.348;2022-08-21T14:05:53;3.00;;;1.20;;
1825;SDS011;912;48.130;11.348;2022-08-21T14:08:40;1.48;;;1.30;;
1825;SDS011;912;48.130;11.348;2022-08-21T14:11:22;1.30;;;1.20;;
1825;SDS011;912;48.130;11.348;2022-08-21T14:14:05;2.53;;;1.30;;
1825;SDS011;912;48.130;11.348;2022-08-21T14:16:52;1.60;;;1.20;;
1825;SDS011;912;48.130;11.348;2022-08-21T14:19:35;1.67;;;1.20;;
1825;SDS011;912;48.130;11.348;2022-08-21T14:22:21;2.10;;;1.15;;
1825;SDS011;912;48.130;11.348;2022-08-21T14:27:02;1.33;;;1.23;;
1825;SDS011;912;48.130;11.348;2022-08-21T14:29:43;1.60;;;1.10;;
1825;SDS011;912;48.130;11.348;2022-08-21T14:32:27;1.50;;;1.20;;
1825;SDS011;912;48.130;11.348;2022-08-21T14:35:51;2.28;;;1.00;;
1825;SDS011;912;48.130;11.348;2022-08-21T14:38:34;3.10;;;1.20;;
1825;SDS011;912;48.130;11.348;2022-08-21T14:41:16;1.30;;;1.20;;
1825;SDS011;912;48.130;11.348;2022-08-21T14:43:58;1.90;;;1.33;;
1825;SDS011;912;48.130;11.348;2022-08-21T14:46:40;0.80;;;0.75;;
1825;SDS011;912;48.130;11.348;2022-08-21T14:49:23;2.10;;;0.95;;
1825;SDS011;912;48.130;11.348;2022-08-21T14:52:04;1.30;;;1.20;;
1825;SDS011;912;48.130;11.348;2022-08-21T14:54:46;1.30;;;1.17;;
1825;SDS011;912;48.130;11.348;2022-08-21T14:57:28;3.03;;;1.50;;
1825;SDS011;912;48.130;11.348;2022-08-21T15:00:10;1.80;;;1.52;;
1825;SDS011;912;48.130;11.348;2022-08-21T15:02:52;1.77;;;1.40;;
1825;SDS011;912;48.130;11.348;2022-08-21T15:05:34;1.70;;;1.60;;
1825;SDS011;912;48.130;11.348;2022-08-21T15:08:16;1.60;;;1.33;;
1825;SDS011;912;48.130;11.348;2022-08-21T15:10:58;2.17;;;1.40;;
1825;SDS011;912;48.130;11.348;2022-08-21T15:13:42;1.23;;;1.12;;
1825;SDS011;912;48.130;11.348;2022-08-21T15:16:24;1.80;;;1.35;;
1825;SDS011;912;48.130;11.348;2022-08-21T15:19:06;2.15;;;1.40;;
1825;SDS011;912;48.130;11.348;2022-08-21T15:21:47;1.12;;;1.02;;
1825;SDS011;912;48.130;11.348;2022-08-21T15:24:29;2.00;;;1.60;;
1825;SDS011;912;48.130;11.348;2022-08-21T15:27:14;2.17;;;1.15;;
1825;SDS011;912;48.130;11.348;2022-08-21T15:29:55;1.62;;;1.35;;
1825;SDS011;912;48.130;11.348;2022-08-21T15:32:40;1.20;;;1.10;;
1825;SDS011;912;48.130;11.348;2022-08-21T15:35:49;2.00;;;1.30;;
1825;SDS011;912;48.130;11.348;2022-08-21T15:38:31;1.37;;;1.12;;
1825;SDS011;912;48.130;11.348;2022-08-21T15:41:13;1.48;;;1.10;;
1825;SDS011;912;48.130;11.348;2022-08-21T15:43:54;1.75;;;1.60;;
1825;SDS011;912;48.130;11.348;2022-08-21T15:46:39;1.83;;;1.45;;
1825;SDS011;912;48.130;11.348;2022-08-21T15:49:21;1.15;;;1.05;;
1825;SDS011;912;48.130;11.348;2022-08-21T15:52:02;1.52;;;1.40;;
1825;SDS011;912;48.130;11.348;2022-08-21T15:54:44;2.53;;;1.50;;
1825;SDS011;912;48.130;11.348;2022-08-21T15:57:26;1.37;;;1.20;;
1825;SDS011;912;48.130;11.348;2022-08-21T16:00:13;1.30;;;1.20;;
1825;SDS011;912;48.130;11.348;2022-08-21T16:02:55;2.03;;;1.25;;
1825;SDS011;912;48.130;11.348;2022-08-21T16:05:36;1.50;;;1.30;;
1825;SDS011;912;48.130;11.348;2022-08-21T16:08:18;1.33;;;1.23;;
1825;SDS011;912;48.130;11.348;2022-08-21T16:10:59;1.70;;;1.10;;
1825;SDS011;912;48.130;11.348;2022-08-21T16:13:42;1.50;;;1.40;;
1825;SDS011;912;48.130;11.348;2022-08-21T16:16:23;1.77;;;1.48;;
1825;SDS011;912;48.130;11.348;2022-08-21T16:19:05;1.20;;;1.02;;
1825;SDS011;912;48.130;11.348;2022-08-21T16:21:46;1.35;;;0.95;;
1825;SDS011;912;48.130;11.348;2022-08-21T16:24:28;1.50;;;1.12;;
1825;SDS011;912;48.130;11.348;2022-08-21T16:27:10;1.70;;;1.30;;
1825;SDS011;912;48.130;11.348;2022-08-21T16:29:51;2.83;;;1.33;;
1825;SDS011;912;48.130;11.348;2022-08-21T16:32:33;1.73;;;1.02;;
1825;SDS011;912;48.130;11.348;2022-08-21T16:35:50;1.80;;;1.20;;
1825;SDS011;912;48.130;11.348;2022-08-21T16:38:32;1.45;;;1.08;;
1825;SDS011;912;48.130;11.348;2022-08-21T16:41:14;1.37;;;0.90;;
1825;SDS011;912;48.130;11.348;2022-08-21T16:43:54;2.42;;;1.23;;
1825;SDS011;912;48.130;11.348;2022-08-21T16:46:37;1.50;;;1.40;;
1825;SDS011;912;48.130;11.348;2022-08-21T16:49:21;2.33;;;1.15;;
1825;SDS011;912;48.130;11.348;2022-08-21T16:52:03;3.17;;;1.70;;
1825;SDS011;912;48.130;11.348;2022-08-21T16:54:44;1.92;;;1.67;;
1825;SDS011;912;48.130;11.348;2022-08-21T16:57:26;1.00;;;0.80;;
1825;SDS011;912;48.130;11.348;2022-08-21T17:00:09;1.48;;;1.12;;
1825;SDS011;912;48.130;11.348;2022-08-21T17:02:52;2.28;;;1.25;;
1825;SDS011;912;48.130;11.348;2022-08-21T17:05:34;1.52;;;1.05;;
1825;SDS011;912;48.130;11.348;2022-08-21T17:08:15;2.87;;;1.40;;
1825;SDS011;912;48.130;11.348;2022-08-21T17:11:00;2.67;;;1.70;;
1825;SDS011;912;48.130;11.348;2022-08-21T17:13:42;2.50;;;1.70;;
1825;SDS011;912;48.130;11.348;2022-08-21T17:16:24;1.73;;;1.40;;
1825;SDS011;912;48.130;11.348;2022-08-21T17:19:05;3.00;;;2.35;;
1825;SDS011;912;48.130;11.348;2022-08-21T17:21:47;11.07;;;7.45;;
1825;SDS011;912;48.130;11.348;2022-08-21T17:24:32;6.15;;;4.03;;
1825;SDS011;912;48.130;11.348;2022-08-21T17:27:16;2.40;;;2.03;;
1825;SDS011;912;48.130;11.348;2022-08-21T17:29:57;2.20;;;1.90;;
1825;SDS011;912;48.130;11.348;2022-08-21T17:32:39;2.00;;;1.30;;
1825;SDS011;912;48.130;11.348;2022-08-21T17:38:23;1.62;;;1.27;;
1825;SDS011;912;48.130;11.348;2022-08-21T17:41:05;4.22;;;1.40;;
1825;SDS011;912;48.130;11.348;2022-08-21T17:43:47;2.70;;;1.10;;
1825;SDS011;912;48.130;11.348;2022-08-21T17:46:32;1.25;;;1.10;;
1825;SDS011;912;48.130;11.348;2022-08-21T17:49:13;1.62;;;1.23;;
1825;SDS011;912;48.130;11.348;2022-08-21T17:51:55;1.40;;;1.20;;
1825;SDS011;912;48.130;11.348;2022-08-21T17:54:37;1.10;;;0.90;;
1825;SDS011;912;48.130;11.348;2022-08-21T17:57:21;2.42;;;1.05;;
1825;SDS011;912;48.130;11.348;2022-08-21T18:02:35;1.77;;;1.08;;
1825;SDS011;912;48.130;11.348;2022-08-21T18:05:16;1.95;;;1.30;;
1825;SDS011;912;48.130;11.348;2022-08-21T18:07:58;1.85;;;1.33;;
1825;SDS011;912;48.130;11.348;2022-08-21T18:10:41;2.40;;;1.55;;